Time;durP1;ratioP1;P1;durP2;ratioP2;P2;SDS_P1;SDS_P2;PMS_P1;PMS_P2;Temp;Humidity;BMP_temperature;BMP_pressure;BME280_temperature;BME280_humidity;BME280_pressure;Samples;Min_cycle;Max_cycle;Signal;HPM_P1;HPM_P2
2023/01/21 00:01:47;;;;;;;67.18;25.27;;;-3276.60;98.80;;;;;;5025119;28;20083;-68
2023/01/21 00:04:13;;;;;;;69.45;25.77;;;-3276.60;98.80;;;;;;5026783;28;20034;-69
2023/01/21 00:06:38;;;;;;;65.60;24.98;;;-3276.70;98.80;;;;;;5023360;28;20080;-68
2023/01/21 00:09:04;;;;;;;67.28;24.13;;;-3276.70;98.80;;;;;;5024250;28;20041;-68
2023/01/21 00:11:30;;;;;;;64.13;24.05;;;-3276.70;98.80;;;;;;5018780;28;20057;-68
2023/01/21 00:13:57;;;;;;;69.10;25.13;;;-3276.70;98.80;;;;;;5029452;28;20029;-68
2023/01/21 00:16:22;;;;;;;70.32;26.25;;;0.00;98.80;;;;;;5027752;28;20041;-69
2023/01/21 00:18:48;;;;;;;65.47;24.60;;;0.00;98.80;;;;;;5024562;28;20041;-69
2023/01/21 00:21:13;;;;;;;67.88;25.35;;;0.00;98.80;;;;;;5023330;28;20389;-68
2023/01/21 00:23:39;;;;;;;60.42;24.45;;;0.00;98.80;;;;;;5017294;28;20068;-69
2023/01/21 00:26:06;;;;;;;62.88;24.98;;;0.00;98.70;;;;;;5027910;28;20116;-69
2023/01/21 00:28:33;;;;;;;62.80;22.75;;;0.00;98.70;;;;;;5027289;28;20025;-69
2023/01/21 00:31:00;;;;;;;62.72;26.20;;;0.10;98.70;;;;;;5023926;28;20037;-68
2023/01/21 00:33:27;;;;;;;64.82;25.15;;;0.00;98.70;;;;;;5028945;28;20051;-69
2023/01/21 00:35:58;;;;;;;64.13;27.35;;;0.10;98.70;;;;;;5039184;28;20039;-69
2023/01/21 00:38:23;;;;;;;66.03;24.83;;;0.10;98.70;;;;;;5037528;28;20551;-69
2023/01/21 00:40:49;;;;;;;63.65;23.17;;;0.10;98.70;;;;;;5033442;28;20038;-68
2023/01/21 00:43:14;;;;;;;60.15;24.48;;;0.10;98.70;;;;;;5044793;28;20037;-69
2023/01/21 00:45:40;;;;;;;51.92;22.48;;;0.20;98.70;;;;;;5034759;28;20038;-69
2023/01/21 00:48:05;;;;;;;50.92;21.80;;;0.20;98.60;;;;;;5028031;28;20378;-69
2023/01/21 00:50:31;;;;;;;52.55;21.70;;;0.30;98.70;;;;;;5038608;28;20099;-69
2023/01/21 00:52:56;;;;;;;48.28;21.05;;;0.30;98.60;;;;;;5037257;28;20030;-69
2023/01/21 00:55:22;;;;;;;52.13;23.02;;;0.30;98.70;;;;;;5046424;28;20465;-70
2023/01/21 00:57:47;;;;;;;50.22;22.08;;;0.30;98.60;;;;;;5032215;28;20420;-68
2023/01/21 01:00:13;;;;;;;50.10;21.70;;;0.40;98.70;;;;;;5032822;28;20053;-69
2023/01/21 01:02:39;;;;;;;55.72;20.63;;;0.40;98.60;;;;;;5015859;28;20029;-69
2023/01/21 01:05:07;;;;;;;54.72;22.13;;;0.40;98.60;;;;;;5021623;28;20046;-68
2023/01/21 01:07:32;;;;;;;57.00;23.10;;;0.40;98.50;;;;;;5030581;28;20037;-69
2023/01/21 01:09:58;;;;;;;58.65;22.65;;;0.40;98.60;;;;;;5033911;28;20045;-68
2023/01/21 01:12:23;;;;;;;56.15;22.88;;;0.40;98.60;;;;;;5032443;28;20025;-69
2023/01/21 01:14:49;;;;;;;53.28;21.85;;;0.40;98.50;;;;;;5029703;28;20446;-69
2023/01/21 01:17:14;;;;;;;54.80;22.33;;;0.40;98.50;;;;;;5028858;28;20085;-69
2023/01/21 01:19:40;;;;;;;45.50;21.23;;;0.40;98.40;;;;;;5025433;28;20052;-70
2023/01/21 01:22:05;;;;;;;53.30;21.55;;;0.40;98.50;;;;;;5023596;28;20080;-69
2023/01/21 01:24:31;;;;;;;54.03;23.05;;;0.40;98.50;;;;;;5018856;28;20482;-70
2023/01/21 01:26:56;;;;;;;44.83;21.65;;;0.40;98.50;;;;;;5029022;28;20131;-68
2023/01/21 01:29:22;;;;;;;50.85;21.52;;;0.40;98.40;;;;;;5030471;28;20037;-70
2023/01/21 01:31:47;;;;;;;45.95;20.05;;;0.40;98.40;;;;;;5031185;28;20034;-69
2023/01/21 01:34:13;;;;;;;42.35;20.17;;;0.40;98.40;;;;;;5028620;28;20055;-69
2023/01/21 01:36:38;;;;;;;44.10;20.08;;;0.40;98.40;;;;;;5031894;28;20461;-68
2023/01/21 01:39:04;;;;;;;47.80;21.27;;;0.40;98.40;;;;;;5033598;28;20047;-69
2023/01/21 01:41:33;;;;;;;45.05;19.88;;;0.30;98.40;;;;;;5030884;28;20040;-69
2023/01/21 01:44:00;;;;;;;42.70;19.75;;;0.30;98.30;;;;;;5029724;28;20160;-69
2023/01/21 01:46:29;;;;;;;38.95;17.52;;;0.30;98.30;;;;;;5027335;28;20046;-68
2023/01/21 01:49:10;;;;;;;39.50;18.77;;;0.20;98.30;;;;;;5026541;28;20035;-69
2023/01/21 01:51:43;;;;;;;36.70;18.65;;;0.30;98.40;;;;;;5027058;28;20029;-69
2023/01/21 01:54:12;;;;;;;40.50;19.25;;;0.20;98.30;;;;;;5025964;28;20084;-68
2023/01/21 01:56:39;;;;;;;43.00;19.85;;;0.10;98.20;;;;;;5029442;28;20037;-69
2023/01/21 01:59:04;;;;;;;46.03;21.92;;;0.10;98.20;;;;;;5032521;28;20100;-69
2023/01/21 02:01:30;;;;;;;45.00;20.52;;;0.10;98.30;;;;;;5026113;28;20539;-69
2023/01/21 02:03:59;;;;;;;43.10;19.98;;;0.10;98.30;;;;;;5027051;28;20038;-69
2023/01/21 02:06:28;;;;;;;43.65;20.08;;;0.10;98.30;;;;;;5031512;28;20389;-69
2023/01/21 02:08:54;;;;;;;41.58;19.63;;;0.10;98.30;;;;;;5030624;28;20029;-69
2023/01/21 02:11:20;;;;;;;46.40;20.48;;;0.10;98.30;;;;;;5025383;28;20453;-69
2023/01/21 02:13:51;;;;;;;43.38;19.38;;;0.10;98.30;;;;;;5031427;28;20113;-69
2023/01/21 02:16:35;;;;;;;41.13;19.42;;;0.10;98.30;;;;;;5026916;28;20377;-71
2023/01/21 02:19:32;;;;;;;43.53;18.95;;;0.10;98.30;;;;;;5026811;28;20029;-69
2023/01/21 02:22:05;;;;;;;40.75;18.08;;;0.20;98.30;;;;;;5025302;28;20045;-70
2023/01/21 02:25:08;;;;;;;46.85;19.42;;;0.20;98.30;;;;;;5023794;28;20048;-70
2023/01/21 02:28:09;;;;;;;37.22;17.42;;;0.20;98.30;;;;;;5016452;28;20441;-69
2023/01/21 02:30:37;;;;;;;37.03;17.13;;;0.30;98.30;;;;;;5024525;28;20049;-69
2023/01/21 02:33:22;;;;;;;41.92;18.45;;;0.20;98.20;;;;;;5029016;28;20038;-70
2023/01/21 02:36:07;;;;;;;39.60;17.67;;;0.20;98.20;;;;;;5023707;28;21292;-69
2023/01/21 02:39:02;;;;;;;37.33;17.25;;;0.10;98.10;;;;;;5024692;28;20030;-70
2023/01/21 02:41:48;;;;;;;39.45;16.83;;;0.10;98.00;;;;;;5030325;28;20462;-69
2023/01/21 02:44:31;;;;;;;37.78;17.02;;;0.00;98.10;;;;;;5032782;28;20401;-69
2023/01/21 02:47:18;;;;;;;34.58;16.42;;;0.10;98.20;;;;;;5025226;28;20544;-69
2023/01/21 02:50:01;;;;;;;42.95;18.55;;;0.10;98.20;;;;;;5026490;28;20029;-69
2023/01/21 02:52:27;;;;;;;38.22;16.20;;;0.10;98.20;;;;;;5026222;28;20079;-69
2023/01/21 02:54:55;;;;;;;36.53;18.25;;;0.10;98.20;;;;;;5029546;28;20366;-69
2023/01/21 02:57:36;;;;;;;41.53;19.27;;;0.10;98.20;;;;;;5023507;28;20033;-69
2023/01/21 03:00:05;;;;;;;;;;;0.10;98.30;;;;;;5025094;28;20694;-69
2023/01/21 03:02:49;;;;;;;35.50;15.65;;;0.20;98.30;;;;;;5024174;28;19923;-69
2023/01/21 03:05:52;;;;;;;37.92;16.90;;;0.10;98.30;;;;;;5021968;28;20478;-70
2023/01/21 03:08:21;;;;;;;34.45;16.85;;;0.10;98.30;;;;;;5020265;28;20116;-69
2023/01/21 03:11:17;;;;;;;37.72;16.63;;;0.10;98.30;;;;;;5026965;28;20171;-70
2023/01/21 03:16:57;;;;;;;35.22;17.00;;;0.00;98.30;;;;;;5019126;28;20067;-69
2023/01/21 03:19:38;;;;;;;36.58;17.00;;;0.00;98.40;;;;;;5023818;28;20048;-70
2023/01/21 03:22:09;;;;;;;37.08;16.58;;;0.00;98.30;;;;;;5019082;28;20033;-69
2023/01/21 03:24:37;;;;;;;36.60;17.42;;;0.00;98.40;;;;;;5022888;28;20042;-71
2023/01/21 03:27:05;;;;;;;41.10;17.95;;;0.00;98.40;;;;;;5031115;28;20660;-69
2023/01/21 03:29:33;;;;;;;39.80;16.75;;;0.00;98.50;;;;;;5023580;28;20042;-69
2023/01/21 03:32:04;;;;;;;33.67;17.77;;;0.00;98.50;;;;;;5023429;28;20033;-69
2023/01/21 03:34:32;;;;;;;;;;;0.10;98.50;;;;;;5028648;28;20519;-69
2023/01/21 03:37:08;;;;;;;35.92;16.60;;;0.00;98.50;;;;;;5022992;28;19916;-70
2023/01/21 03:39:53;;;;;;;38.03;17.17;;;0.10;98.50;;;;;;5031347;28;20041;-69
2023/01/21 03:42:19;;;;;;;38.38;16.42;;;0.10;98.50;;;;;;5025087;28;20551;-69
2023/01/21 03:44:45;;;;;;;38.92;17.30;;;0.10;98.50;;;;;;5029937;28;20041;-69
2023/01/21 03:47:27;;;;;;;38.13;17.30;;;0.10;98.50;;;;;;5022732;28;20046;-69
2023/01/21 03:50:08;;;;;;;35.67;17.00;;;0.20;98.60;;;;;;5018211;28;20386;-69
2023/01/21 03:52:38;;;;;;;34.15;15.85;;;0.20;98.50;;;;;;5020783;28;20393;-69
2023/01/21 03:55:04;;;;;;;32.22;15.90;;;0.20;98.50;;;;;;5026902;28;20083;-70
2023/01/21 03:57:30;;;;;;;34.13;17.27;;;0.20;98.50;;;;;;5026408;28;20414;-71
2023/01/21 03:59:55;;;;;;;40.50;17.63;;;0.20;98.50;;;;;;5026790;28;20030;-70
2023/01/21 04:02:20;;;;;;;38.13;18.23;;;0.20;98.50;;;;;;5017444;28;20034;-71
2023/01/21 04:04:46;;;;;;;37.30;17.85;;;0.20;98.60;;;;;;5021590;28;20397;-69
2023/01/21 04:07:13;;;;;;;37.75;17.05;;;0.20;98.50;;;;;;5021600;28;20037;-69
2023/01/21 04:09:39;;;;;;;37.50;17.67;;;0.30;98.50;;;;;;5029194;28;20032;-70
2023/01/21 04:12:04;;;;;;;39.80;17.42;;;0.30;98.50;;;;;;5028237;28;20038;-70
2023/01/21 04:14:30;;;;;;;34.80;17.13;;;0.30;98.50;;;;;;5028921;28;20064;-69
2023/01/21 04:16:55;;;;;;;41.58;17.17;;;0.40;98.50;;;;;;5042214;28;20029;-69
2023/01/21 04:19:21;;;;;;;36.97;17.73;;;0.40;98.50;;;;;;5028758;28;20033;-69
2023/01/21 04:21:46;;;;;;;36.72;17.50;;;0.40;98.50;;;;;;5030267;28;20091;-70
2023/01/21 04:24:12;;;;;;;35.70;16.85;;;0.40;98.40;;;;;;5024782;28;20706;-69
2023/01/21 04:26:37;;;;;;;34.00;16.55;;;0.40;98.40;;;;;;5030152;28;20128;-71
2023/01/21 04:29:03;;;;;;;39.45;17.88;;;0.40;98.40;;;;;;5023266;28;20378;-70
2023/01/21 04:31:28;;;;;;;31.92;16.58;;;0.40;98.40;;;;;;5029156;28;20107;-69
2023/01/21 04:33:54;;;;;;;36.58;16.98;;;0.40;98.40;;;;;;5029416;28;20037;-70
2023/01/21 04:36:20;;;;;;;32.47;16.10;;;0.40;98.40;;;;;;5025828;28;20068;-69
2023/01/21 04:38:45;;;;;;;35.88;16.33;;;0.40;98.30;;;;;;5026717;28;20072;-70
2023/01/21 04:41:10;;;;;;;34.30;16.33;;;0.40;98.30;;;;;;5032180;28;20049;-70
2023/01/21 04:43:36;;;;;;;37.58;15.95;;;0.30;98.30;;;;;;5035251;28;20034;-70
2023/01/21 04:46:01;;;;;;;34.28;16.95;;;0.30;98.30;;;;;;5024346;28;20393;-70
2023/01/21 04:48:27;;;;;;;33.72;16.42;;;0.30;98.30;;;;;;5031892;28;20041;-70
2023/01/21 04:50:52;;;;;;;35.80;17.55;;;0.30;98.30;;;;;;5027803;28;20116;-70
2023/01/21 04:53:18;;;;;;;35.85;17.60;;;0.30;98.40;;;;;;5030416;28;20446;-71
2023/01/21 04:55:43;;;;;;;35.40;15.80;;;0.30;98.40;;;;;;5025192;28;20037;-70
2023/01/21 04:58:09;;;;;;;34.90;17.05;;;0.30;98.40;;;;;;5028720;28;20025;-69
2023/01/21 05:00:34;;;;;;;32.95;17.63;;;0.30;98.40;;;;;;5027592;28;20068;-70
2023/01/21 05:03:00;;;;;;;32.30;15.85;;;0.40;98.40;;;;;;5022019;28;20091;-71
2023/01/21 05:05:25;;;;;;;34.35;16.73;;;0.40;98.40;;;;;;5023073;28;20765;-72
2023/01/21 05:07:52;;;;;;;35.17;15.98;;;0.40;98.30;;;;;;5035665;28;20055;-71
2023/01/21 05:10:18;;;;;;;37.30;16.92;;;0.40;98.40;;;;;;5030590;28;20044;-70
2023/01/21 05:12:43;;;;;;;32.15;16.48;;;0.40;98.40;;;;;;5029546;28;20037;-70
2023/01/21 05:15:10;;;;;;;32.95;17.33;;;0.50;98.40;;;;;;5027011;28;20037;-70
2023/01/21 05:17:35;;;;;;;39.13;17.13;;;0.40;98.40;;;;;;5029735;28;20033;-70
2023/01/21 05:20:01;;;;;;;34.42;17.02;;;0.50;98.40;;;;;;5021238;28;20496;-69
2023/01/21 05:22:27;;;;;;;44.30;17.95;;;0.50;98.40;;;;;;5027307;28;20454;-70
2023/01/21 05:24:52;;;;;;;36.63;17.60;;;0.40;98.40;;;;;;5025144;28;20030;-69
2023/01/21 05:27:20;;;;;;;53.47;21.58;;;0.50;98.30;;;;;;5027106;28;20029;-71
2023/01/21 05:29:46;;;;;;;61.08;24.52;;;0.40;98.30;;;;;;5030089;28;20052;-69
2023/01/21 05:32:12;;;;;;;53.10;21.95;;;0.40;98.30;;;;;;5031454;28;20495;-70
2023/01/21 05:34:38;;;;;;;51.65;22.10;;;0.50;98.40;;;;;;5022106;28;20104;-69
2023/01/21 05:37:03;;;;;;;57.58;21.25;;;0.50;98.40;;;;;;5025947;28;20112;-70
2023/01/21 05:39:28;;;;;;;46.38;21.00;;;0.50;98.40;;;;;;5027175;28;20458;-70
2023/01/21 05:41:54;;;;;;;49.15;20.20;;;0.50;98.30;;;;;;5026827;28;20040;-70
2023/01/21 05:44:19;;;;;;;46.00;20.17;;;0.50;98.30;;;;;;5031628;28;20404;-70
2023/01/21 05:46:45;;;;;;;41.97;19.80;;;0.50;98.30;;;;;;5030671;28;20037;-70
2023/01/21 05:49:10;;;;;;;44.58;20.77;;;0.50;98.40;;;;;;5023687;28;20112;-70
2023/01/21 05:51:36;;;;;;;47.25;20.42;;;0.50;98.40;;;;;;5040699;28;20105;-70
2023/01/21 05:54:01;;;;;;;47.47;18.48;;;0.50;98.40;;;;;;5028362;28;20091;-70
2023/01/21 05:56:27;;;;;;;42.40;18.55;;;0.50;98.40;;;;;;5031257;28;20033;-69
2023/01/21 05:58:52;;;;;;;39.17;18.83;;;0.50;98.40;;;;;;5029750;28;20115;-70
2023/01/21 06:01:18;;;;;;;39.65;17.65;;;0.50;98.40;;;;;;5020568;28;20045;-71
2023/01/21 06:03:43;;;;;;;40.50;18.25;;;0.40;98.40;;;;;;5017099;28;20485;-70
2023/01/21 06:06:09;;;;;;;41.33;17.92;;;0.40;98.40;;;;;;5028602;28;20037;-70
2023/01/21 06:08:34;;;;;;;41.63;19.67;;;0.40;98.40;;;;;;5013370;28;20037;-69
2023/01/21 06:11:00;;;;;;;39.47;18.50;;;0.40;98.40;;;;;;5025566;28;20105;-69
2023/01/21 06:13:25;;;;;;;40.28;18.73;;;0.40;98.50;;;;;;5020166;28;20493;-70
2023/01/21 06:15:54;;;;;;;36.08;17.85;;;0.40;98.50;;;;;;5023288;28;20488;-69
2023/01/21 06:18:20;;;;;;;38.63;17.17;;;0.30;98.40;;;;;;5026385;28;20049;-70
2023/01/21 06:20:46;;;;;;;39.72;17.95;;;0.30;98.50;;;;;;5030204;28;20034;-70
2023/01/21 06:23:12;;;;;;;36.10;17.10;;;0.30;98.50;;;;;;5026901;28;20049;-70
2023/01/21 06:25:37;;;;;;;32.50;16.27;;;0.30;98.60;;;;;;5034438;28;20374;-71
2023/01/21 06:28:03;;;;;;;38.17;17.20;;;0.30;98.60;;;;;;5029057;28;20041;-69
2023/01/21 06:30:28;;;;;;;39.50;19.50;;;0.40;98.60;;;;;;5031830;28;20029;-70
2023/01/21 06:32:54;;;;;;;35.55;17.42;;;0.40;98.70;;;;;;5025414;28;20038;-71
2023/01/21 06:35:19;;;;;;;41.83;18.33;;;0.40;98.70;;;;;;5029373;28;20041;-71
2023/01/21 06:37:45;;;;;;;36.47;17.20;;;0.40;98.70;;;;;;5033857;28;20063;-71
2023/01/21 06:40:11;;;;;;;41.78;19.50;;;0.40;98.70;;;;;;5030943;28;20065;-71
2023/01/21 06:42:37;;;;;;;44.22;19.00;;;0.40;98.80;;;;;;5032831;28;20022;-71
2023/01/21 06:45:03;;;;;;;42.13;19.48;;;0.50;98.80;;;;;;5035610;28;20029;-71
2023/01/21 06:47:29;;;;;;;39.95;19.60;;;0.50;98.80;;;;;;5027503;28;20037;-71
2023/01/21 06:49:54;;;;;;;46.55;20.55;;;0.50;98.80;;;;;;5021167;28;20087;-71
2023/01/21 06:52:20;;;;;;;44.65;18.38;;;0.50;98.80;;;;;;5025430;28;20091;-71
2023/01/21 06:54:47;;;;;;;44.00;19.17;;;0.60;98.90;;;;;;5024464;28;20036;-70
2023/01/21 06:57:12;;;;;;;42.97;19.55;;;0.50;98.80;;;;;;5022784;28;20067;-70
2023/01/21 06:59:38;;;;;;;46.50;20.13;;;0.50;98.80;;;;;;5025183;28;20093;-71
2023/01/21 07:02:03;;;;;;;39.25;19.40;;;0.60;98.90;;;;;;5023301;28;20378;-70
2023/01/21 07:04:29;;;;;;;44.33;19.27;;;0.60;98.80;;;;;;5029521;28;20041;-70
2023/01/21 07:06:54;;;;;;;42.72;18.95;;;0.50;98.80;;;;;;5025784;28;20048;-70
2023/01/21 07:09:20;;;;;;;42.97;19.83;;;0.60;98.90;;;;;;5031378;28;20052;-70
2023/01/21 07:11:46;;;;;;;41.95;19.38;;;0.60;98.90;;;;;;5019937;28;20469;-70
2023/01/21 07:14:12;;;;;;;44.53;20.30;;;0.60;98.90;;;;;;5027379;28;20033;-70
2023/01/21 07:16:38;;;;;;;47.47;20.70;;;0.60;98.80;;;;;;5027397;28;20037;-70
2023/01/21 07:19:03;;;;;;;42.55;19.63;;;0.60;98.80;;;;;;5018367;28;20026;-70
2023/01/21 07:21:29;;;;;;;41.88;19.83;;;0.50;98.80;;;;;;5027910;28;20033;-70
2023/01/21 07:23:55;;;;;;;43.08;18.60;;;0.50;98.80;;;;;;5022257;28;20406;-70
2023/01/21 07:26:21;;;;;;;49.35;20.60;;;0.50;98.80;;;;;;5019962;28;20097;-70
2023/01/21 07:28:46;;;;;;;40.90;19.85;;;0.50;98.80;;;;;;5017701;28;20053;-70
2023/01/21 07:31:12;;;;;;;42.78;19.73;;;0.50;98.90;;;;;;5018239;28;20034;-70
2023/01/21 07:33:38;;;;;;;40.58;18.52;;;0.40;98.90;;;;;;5021875;28;20041;-70
2023/01/21 07:36:04;;;;;;;38.42;19.27;;;0.50;98.80;;;;;;5026835;28;20116;-70
2023/01/21 07:38:29;;;;;;;36.60;17.13;;;0.50;98.90;;;;;;5028135;28;20048;-70
2023/01/21 07:40:55;;;;;;;43.88;19.48;;;0.50;99.00;;;;;;5027505;28;20493;-70
2023/01/21 07:43:20;;;;;;;43.20;19.48;;;0.50;98.90;;;;;;5026939;28;20104;-71
2023/01/21 07:45:46;;;;;;;42.55;18.88;;;0.50;98.90;;;;;;5016056;28;20039;-70
2023/01/21 07:48:12;;;;;;;49.15;19.98;;;0.60;98.90;;;;;;5018927;28;20107;-70
2023/01/21 07:50:37;;;;;;;38.65;18.90;;;0.60;98.90;;;;;;5018776;28;20034;-70
2023/01/21 07:53:05;;;;;;;44.78;20.48;;;0.60;98.90;;;;;;5021132;28;20034;-70
2023/01/21 07:55:31;;;;;;;43.47;19.17;;;0.50;98.90;;;;;;5019843;28;20041;-70
2023/01/21 07:57:58;;;;;;;41.33;19.20;;;0.60;98.90;;;;;;5023499;28;20072;-70
2023/01/21 08:00:25;;;;;;;41.95;20.20;;;0.60;99.00;;;;;;5024468;28;20038;-70
2023/01/21 08:02:53;;;;;;;48.90;19.92;;;0.60;98.90;;;;;;5022673;28;20148;-70
2023/01/21 08:05:18;;;;;;;38.67;17.95;;;0.60;98.80;;;;;;5011449;28;20405;-70
2023/01/21 08:07:44;;;;;;;45.05;19.50;;;0.60;98.80;;;;;;5019306;28;20150;-70
2023/01/21 08:10:10;;;;;;;39.70;21.05;;;0.70;98.90;;;;;;5015940;28;20104;-70
2023/01/21 08:12:35;;;;;;;36.22;18.48;;;0.70;98.70;;;;;;5018368;28;20034;-70
2023/01/21 08:15:01;;;;;;;45.25;18.98;;;0.70;98.80;;;;;;5022752;28;20034;-70
2023/01/21 08:17:26;;;;;;;39.72;19.17;;;0.80;98.70;;;;;;5021340;28;20041;-70
2023/01/21 08:19:51;;;;;;;40.00;20.00;;;0.70;98.60;;;;;;5012337;28;20079;-71
2023/01/21 08:22:17;;;;;;;40.88;19.25;;;0.70;98.60;;;;;;5021266;28;20047;-70
2023/01/21 08:24:42;;;;;;;41.65;20.27;;;0.80;98.60;;;;;;5017337;28;20088;-70
2023/01/21 08:27:08;;;;;;;43.05;19.90;;;0.80;98.60;;;;;;5014921;28;20037;-69
2023/01/21 08:29:34;;;;;;;40.03;20.17;;;0.90;98.60;;;;;;5022452;28;20136;-70
2023/01/21 08:31:59;;;;;;;41.42;21.08;;;0.90;98.40;;;;;;5027392;28;20044;-70
2023/01/21 08:34:24;;;;;;;40.10;19.30;;;0.90;98.50;;;;;;5023046;28;20030;-69
2023/01/21 08:36:50;;;;;;;41.85;20.23;;;1.00;98.40;;;;;;5016727;28;20059;-70
2023/01/21 08:39:15;;;;;;;43.35;22.42;;;1.00;98.30;;;;;;5030144;28;20025;-71
2023/01/21 08:41:43;;;;;;;37.30;19.58;;;1.00;98.30;;;;;;5029425;28;20071;-71
2023/01/21 08:44:08;;;;;;;35.03;18.40;;;1.10;98.20;;;;;;5013526;28;20079;-71
2023/01/21 08:46:34;;;;;;;41.25;19.33;;;1.10;98.20;;;;;;5024171;28;20467;-70
2023/01/21 08:48:59;;;;;;;38.95;18.67;;;1.10;98.00;;;;;;5013462;28;20038;-70
2023/01/21 08:51:25;;;;;;;35.20;17.98;;;1.20;98.10;;;;;;5018366;28;20113;-70
2023/01/21 08:53:52;;;;;;;37.50;17.73;;;1.20;98.00;;;;;;5025722;28;20389;-70
2023/01/21 08:56:18;;;;;;;39.00;19.02;;;1.20;97.90;;;;;;5027319;28;20493;-74
2023/01/21 08:58:44;;;;;;;39.13;18.20;;;1.20;97.80;;;;;;5026152;28;20071;-71
2023/01/21 09:01:11;;;;;;;38.55;17.80;;;1.20;97.70;;;;;;5019341;28;20034;-71
2023/01/21 09:03:37;;;;;;;35.95;17.90;;;1.20;97.60;;;;;;5020207;28;20041;-70
2023/01/21 09:06:04;;;;;;;36.10;18.25;;;1.30;97.60;;;;;;5031793;28;20034;-71
2023/01/21 09:08:30;;;;;;;34.28;17.40;;;1.30;97.60;;;;;;5027174;28;20040;-72
2023/01/21 09:10:59;;;;;;;33.15;16.55;;;1.30;97.50;;;;;;5031514;28;20022;-71
2023/01/21 09:13:25;;;;;;;37.05;18.30;;;1.40;97.60;;;;;;5021205;28;20041;-71
2023/01/21 09:15:51;;;;;;;32.95;17.00;;;1.30;97.40;;;;;;5020640;28;20025;-70
2023/01/21 09:18:16;;;;;;;36.15;18.33;;;1.40;97.50;;;;;;5025839;28;20029;-71
2023/01/21 09:20:42;;;;;;;43.03;19.52;;;1.40;97.30;;;;;;5013761;28;20536;-70
2023/01/21 09:23:23;;;;;;;39.75;18.98;;;1.40;97.30;;;;;;5020216;28;20041;-71
2023/01/21 09:25:50;;;;;;;37.75;17.83;;;1.50;97.40;;;;;;5019076;28;20121;-71
2023/01/21 09:28:17;;;;;;;38.35;18.60;;;1.50;97.20;;;;;;5027510;28;20394;-71
2023/01/21 09:30:42;;;;;;;34.38;17.98;;;1.60;97.30;;;;;;5030101;28;20107;-71
2023/01/21 09:33:08;;;;;;;37.05;18.17;;;1.60;97.20;;;;;;5026775;28;20493;-69
2023/01/21 09:35:33;;;;;;;36.92;18.63;;;1.60;97.20;;;;;;5021594;28;20525;-70
2023/01/21 09:37:59;;;;;;;40.97;19.20;;;1.60;97.20;;;;;;5028613;28;20033;-69
2023/01/21 09:40:24;;;;;;;36.25;18.63;;;1.60;97.10;;;;;;5026131;28;20026;-70
2023/01/21 09:42:50;;;;;;;37.75;19.60;;;1.70;97.10;;;;;;5023495;28;20112;-69
2023/01/21 09:45:17;;;;;;;37.53;19.33;;;1.70;97.10;;;;;;5025442;28;20033;-68
2023/01/21 09:47:45;;;;;;;41.42;20.35;;;1.70;97.10;;;;;;5030140;28;20493;-71
2023/01/21 09:50:16;;;;;;;38.60;20.10;;;1.80;97.00;;;;;;5025234;28;20056;-71
2023/01/21 09:52:42;;;;;;;;;;;1.80;96.90;;;;;;5017175;28;20113;-70
2023/01/21 09:55:26;;;;;;;39.85;18.88;;;1.70;96.70;;;;;;5031683;28;20293;-71
2023/01/21 09:58:19;;;;;;;38.17;20.40;;;1.80;96.80;;;;;;5017798;28;20062;-70
2023/01/21 10:00:50;;;;;;;39.30;18.77;;;1.80;96.60;;;;;;5019527;28;20038;-70
2023/01/21 10:03:42;;;;;;;41.55;19.00;;;1.90;96.80;;;;;;5027124;28;20026;-70
2023/01/21 10:06:34;;;;;;;40.00;20.45;;;2.00;96.90;;;;;;5024597;28;20034;-70
2023/01/21 10:09:19;;;;;;;40.15;21.45;;;1.90;96.70;;;;;;5027982;28;20381;-70
2023/01/21 10:12:25;;;;;;;40.95;19.85;;;1.90;96.60;;;;;;5016718;28;20025;-70
2023/01/21 10:15:16;;;;;;;37.83;19.58;;;2.00;96.80;;;;;;5029893;28;20026;-70
2023/01/21 10:17:54;;;;;;;38.95;20.35;;;2.10;96.80;;;;;;5027369;28;20025;-70
2023/01/21 10:20:27;;;;;;;38.75;20.75;;;2.00;96.80;;;;;;5015456;28;20045;-72
2023/01/21 10:23:00;;;;;;;38.67;19.35;;;2.10;96.80;;;;;;5024273;28;20087;-72
2023/01/21 10:25:31;;;;;;;39.30;20.23;;;1.90;96.60;;;;;;5023371;28;20433;-70
2023/01/21 10:28:01;;;;;;;37.33;19.05;;;2.00;96.80;;;;;;5015344;28;20064;-70
2023/01/21 10:30:36;;;;;;;42.00;19.58;;;1.80;96.60;;;;;;5023296;28;20359;-70
2023/01/21 10:33:04;;;;;;;38.58;20.20;;;1.80;96.70;;;;;;5022873;28;20075;-70
2023/01/21 10:35:45;;;;;;;38.05;20.77;;;1.90;96.80;;;;;;5022195;28;20038;-70
2023/01/21 10:38:23;;;;;;;40.15;19.05;;;1.90;96.90;;;;;;5024248;28;20041;-70
2023/01/21 10:41:19;;;;;;;39.35;19.05;;;1.80;96.90;;;;;;5022118;28;20030;-70
2023/01/21 10:43:50;;;;;;;40.80;20.50;;;1.80;97.00;;;;;;5028955;28;20429;-70
2023/01/21 10:46:36;;;;;;;49.63;21.05;;;1.80;96.90;;;;;;5025340;28;20382;-70
2023/01/21 10:49:26;;;;;;;38.03;20.15;;;1.90;96.90;;;;;;5026514;28;20112;-70
2023/01/21 10:52:04;;;;;;;37.33;19.87;;;1.90;97.00;;;;;;5021353;28;20502;-70
2023/01/21 10:54:42;;;;;;;40.25;19.50;;;2.00;96.90;;;;;;5025772;28;20281;-70
2023/01/21 10:57:26;;;;;;;38.67;20.25;;;2.10;97.00;;;;;;5018741;28;20386;-70
2023/01/21 10:59:55;;;;;;;39.63;19.90;;;2.10;96.90;;;;;;5018460;28;20064;-70
2023/01/21 11:02:33;;;;;;;40.92;20.30;;;2.20;96.70;;;;;;5024920;28;20102;-70
2023/01/21 11:05:03;;;;;;;42.30;19.50;;;2.30;96.90;;;;;;5028209;28;20474;-71
2023/01/21 11:07:36;;;;;;;38.65;19.25;;;2.40;96.60;;;;;;5019733;28;20037;-72
2023/01/21 11:10:03;;;;;;;38.65;18.85;;;2.50;96.60;;;;;;5024924;28;20192;-71
2023/01/21 11:12:29;;;;;;;42.35;21.52;;;2.50;96.40;;;;;;5030377;28;20045;-71
2023/01/21 11:15:01;;;;;;;40.47;20.50;;;2.50;96.00;;;;;;5027938;28;20029;-71
2023/01/21 11:17:34;;;;;;;39.28;19.67;;;2.60;96.10;;;;;;5025010;28;20037;-71
2023/01/21 11:20:02;;;;;;;40.75;19.85;;;2.60;95.80;;;;;;5015197;28;20386;-71
2023/01/21 11:22:31;;;;;;;40.70;20.90;;;2.60;95.70;;;;;;5018059;28;20081;-71
2023/01/21 11:24:58;;;;;;;36.25;19.83;;;2.80;95.70;;;;;;5020905;28;20033;-71
2023/01/21 11:27:37;;;;;;;37.88;18.92;;;2.70;95.40;;;;;;5020136;28;20383;-71
2023/01/21 11:30:04;;;;;;;36.08;18.52;;;2.80;95.30;;;;;;5017884;28;20038;-71
2023/01/21 11:32:31;;;;;;;33.70;19.58;;;2.70;95.30;;;;;;5020903;28;20480;-71
2023/01/21 11:35:03;;;;;;;37.05;21.05;;;2.60;95.00;;;;;;5017553;28;20421;-71
2023/01/21 11:37:31;;;;;;;43.05;22.17;;;2.60;94.90;;;;;;5020351;28;20033;-71
2023/01/21 11:40:06;;;;;;;40.50;20.88;;;2.60;95.00;;;;;;5022907;28;20022;-71
2023/01/21 11:42:31;;;;;;;36.45;19.38;;;2.70;95.20;;;;;;5015721;28;20022;-71
2023/01/21 11:45:03;;;;;;;34.20;19.52;;;2.80;95.10;;;;;;5018980;28;20042;-70
2023/01/21 11:47:47;;;;;;;36.92;19.67;;;2.80;95.10;;;;;;5014503;28;20033;-70
2023/01/21 11:50:34;;;;;;;37.60;19.13;;;2.80;94.80;;;;;;5018565;28;20049;-71
2023/01/21 11:53:05;;;;;;;36.60;18.10;;;2.80;94.80;;;;;;5016167;28;20466;-71
2023/01/21 11:56:00;;;;;;;42.28;20.30;;;2.90;94.40;;;;;;5017731;28;20033;-71
2023/01/21 11:58:34;;;;;;;32.65;17.60;;;3.00;94.50;;;;;;5015673;28;20061;-71
2023/01/21 12:01:04;;;;;;;34.92;19.23;;;3.10;94.20;;;;;;5022018;28;20065;-71
2023/01/21 12:03:35;;;;;;;33.50;18.65;;;3.20;94.10;;;;;;5014887;28;20034;-71
2023/01/21 12:06:02;;;;;;;33.00;17.45;;;3.20;93.60;;;;;;5023108;28;20393;-71
2023/01/21 12:08:33;;;;;;;39.08;18.20;;;3.30;93.60;;;;;;5016331;28;20217;-70
2023/01/21 12:11:01;;;;;;;37.75;19.05;;;3.30;93.60;;;;;;5024530;28;20065;-70
2023/01/21 12:14:00;;;;;;;35.83;18.08;;;3.20;92.90;;;;;;5013478;28;20045;-70
2023/01/21 12:16:48;;;;;;;29.30;15.18;;;3.10;92.70;;;;;;5016744;28;20065;-71
2023/01/21 12:19:23;;;;;;;30.00;15.80;;;3.10;92.50;;;;;;5022664;28;20033;-70
2023/01/21 12:22:27;;;;;;;33.45;16.20;;;3.10;92.60;;;;;;5023430;28;20522;-70
2023/01/21 12:25:16;;;;;;;32.05;16.63;;;3.00;92.50;;;;;;5012472;28;20049;-71
2023/01/21 12:28:18;;;;;;;31.05;16.15;;;3.20;93.10;;;;;;5011593;28;20042;-70
2023/01/21 12:30:54;;;;;;;30.75;15.50;;;3.20;93.00;;;;;;5026168;28;20040;-71
2023/01/21 12:33:39;;;;;;;29.20;15.23;;;3.20;92.40;;;;;;5023048;28;20036;-71
2023/01/21 12:36:24;;;;;;;38.38;17.63;;;3.30;92.20;;;;;;5023950;28;20083;-71
2023/01/21 12:39:05;;;;;;;31.90;16.48;;;3.10;92.50;;;;;;5026244;28;20064;-70
2023/01/21 12:41:32;;;;;;;31.80;15.82;;;3.30;92.40;;;;;;5024125;28;20099;-70
2023/01/21 12:44:23;;;;;;;32.72;16.70;;;3.20;91.90;;;;;;5023500;28;20030;-70
2023/01/21 12:46:49;;;;;;;;;;;3.30;92.10;;;;;;5030622;28;20355;-70
2023/01/21 12:49:47;;;;;;;26.17;14.05;;;3.40;92.00;;;;;;5021614;28;19920;-70
2023/01/21 12:52:24;;;;;;;30.73;15.23;;;3.40;91.40;;;;;;5023334;28;20074;-71
2023/01/21 12:55:16;;;;;;;30.90;15.10;;;3.20;91.40;;;;;;5029920;28;20030;-70
2023/01/21 12:58:08;;;;;;;29.25;14.25;;;3.20;91.80;;;;;;5018713;28;20506;-70